Terminal Aerodrome Forecast
Issued by NWS

Home | Current Version | Previous Version | Text Only | Print | Product List | Glossary On
Versions: 1 2 3 4 5 6 7 8 9 10 11 12 13 14 15 16 17 18 19 20 21 22 23 24
965
FTUS41 KBUF 190529
TAFIAG
TAF
KIAG 190529Z 1906/2006 20008KT P6SM SKC WS020/24035KT
     FM190800 21012G18KT P6SM SKC WS020/24035KT
     FM191400 22018G26KT P6SM SCT250
     FM191800 24020G30KT P6SM BKN050
     FM192300 26013KT P6SM SCT050
     FM200200 26007KT P6SM SKC=

USA.gov is the U.S. government's official web portal to all federal, state and local government web resources and services.